TimeEST,TemperatureF,Dew PointF,Humidity,Sea Level PressureIn,VisibilityMPH,Wind Direction,Wind SpeedMPH,Gust SpeedMPH,PrecipitationIn,Events,Conditions,WindDirDegrees,DateUTC
12:53 AM,36.0,18.0,48,30.07,10.0,NNE,5.8,-,N/A,,Clear,20,2013-01-21 05:53:00
1:53 AM,33.1,19.0,56,30.09,10.0,Calm,Calm,-,N/A,,Clear,0,2013-01-21 06:53:00
2:53 AM,33.1,21.0,61,30.11,10.0,North,5.8,-,N/A,,Clear,10,2013-01-21 07:53:00
4:53 AM,26.1,21.0,81,30.11,10.0,Calm,Calm,-,N/A,,Clear,0,2013-01-21 09:53:00
5:53 AM,26.1,23.0,88,30.11,10.0,Calm,Calm,-,N/A,,Clear,0,2013-01-21 10:53:00
7:53 AM,28.9,23.0,78,30.12,10.0,North,4.6,-,N/A,,Clear,350,2013-01-21 12:53:00
8:53 AM,35.1,23.0,61,30.13,10.0,North,4.6,-,N/A,,Clear,350,2013-01-21 13:53:00
9:53 AM,37.9,24.1,57,30.12,10.0,Variable,3.5,-,N/A,,Clear,0,2013-01-21 14:53:00
10:53 AM,39.0,23.0,53,30.10,10.0,ESE,8.1,-,N/A,,Clear,110,2013-01-21 15:53:00
11:53 AM,39.0,23.0,53,30.06,10.0,Variable,6.9,-,N/A,,Clear,0,2013-01-21 16:53:00
12:53 PM,39.9,25.0,55,30.01,10.0,ESE,5.8,-,N/A,,Clear,120,2013-01-21 17:53:00
1:53 PM,42.1,26.1,53,29.97,10.0,SE,5.8,-,N/A,,Clear,140,2013-01-21 18:53:00
2:53 PM,43.0,28.9,58,29.93,10.0,SE,4.6,-,N/A,,Clear,140,2013-01-21 19:53:00
3:53 PM,43.0,32.0,65,29.87,10.0,SE,4.6,-,N/A,,Clear,130,2013-01-21 20:53:00
4:53 PM,42.1,34.0,73,29.83,10.0,Calm,Calm,-,N/A,,Clear,0,2013-01-21 21:53:00
5:53 PM,36.0,33.1,89,29.81,10.0,Calm,Calm,-,N/A,,Clear,0,2013-01-21 22:53:00
6:53 PM,34.0,33.1,96,29.80,10.0,Calm,Calm,-,N/A,,Clear,0,2013-01-21 23:53:00
7:53 PM,41.0,39.0,93,29.77,10.0,SW,6.9,-,N/A,,Partly Cloudy,220,2013-01-22 00:53:00
8:53 PM,45.0,43.0,93,29.78,10.0,West,19.6,28.8,N/A,,Mostly Cloudy,280,2013-01-22 01:53:00
9:40 PM,37.4,32.0,81,29.84,10.0,North,19.6,27.6,N/A,,Overcast,350,2013-01-22 02:40:00
9:53 PM,35.1,30.0,82,29.85,10.0,NNW,16.1,27.6,N/A,,Overcast,340,2013-01-22 02:53:00
10:13 PM,33.8,30.2,87,29.86,10.0,North,21.9,33.4,N/A,,Overcast,350,2013-01-22 03:13:00
10:53 PM,33.1,27.0,78,29.88,10.0,North,18.4,24.2,N/A,,Partly Cloudy,350,2013-01-22 03:53:00
11:53 PM,30.9,23.0,72,29.89,10.0,North,17.3,21.9,N/A,,Clear,360,2013-01-22 04:53:00